Terminal Aerodrome Forecast
Issued by NWS

Home | Current Version | Previous Version | Text Only | Print | Product List | Glossary On
Versions: 1 2 3 4 5 6 7 8 9 10 11 12 13 14 15 16 17 18 19 20 21 22 23
000
FTUS41 KCTP 230920 AAB
TAFUNV
TAF AMD
KUNV 230920Z 2309/2406 18004KT P6SM BKN250
     FM231200 15005KT P6SM BKN025
     FM231500 17010KT P6SM BKN050
     FM232000 16015G20KT P6SM OVC025
     FM240200 19015G20KT 5SM SHRA OVC015 WS020/16045KT=

USA.gov is the U.S. government's official web portal to all federal, state and local government web resources and services.